< < Back
Terminal Aerodrome Forecast


Current Version              Previous Versions:   1  2  3  4  5  6  7  8  9  

Terminal Aerodrome Forecast

018
FTUS42 KJAX 261720
TAFGNV
TAF
KGNV 261720Z 2618/2718 20005KT P6SM VCSH SCT040
     FM261900 22008KT P6SM VCTS BKN040CB
     FM270000 21003KT P6SM BKN250
     FM271400 23008KT P6SM SCT030=

Latest METAR

257
SAUS70 KWBC 270100 RRL
MTRGNV
METAR KGNV 270053Z 28004KT 10SM CLR 29/21 A3005 RMK AO2 SLP172
T02890206


USA.gov is the U.S. government's official web portal to all federal, state and local government web resources and services.